createdAt,value
2019-05-16T00:00:08.374Z,1015.70
2019-05-16T00:01:09.186Z,1015.69
2019-05-16T00:02:08.240Z,1015.66
2019-05-16T00:03:08.034Z,1015.65
2019-05-16T00:04:08.762Z,1015.63
2019-05-16T00:05:08.383Z,1015.64
2019-05-16T00:06:08.450Z,1015.62
2019-05-16T00:07:08.064Z,1015.59
2019-05-16T00:08:11.901Z,1015.66
2019-05-16T00:09:08.027Z,1015.66
2019-05-16T00:10:08.355Z,1015.63
2019-05-16T00:11:08.453Z,1015.65
2019-05-16T00:12:08.585Z,1015.61
2019-05-16T00:13:08.494Z,1015.62
2019-05-16T00:14:08.269Z,1015.63
2019-05-16T00:15:08.733Z,1015.64
2019-05-16T00:16:07.980Z,1015.59
2019-05-16T00:17:08.367Z,1015.59
2019-05-16T00:18:08.589Z,1015.56
2019-05-16T00:19:08.577Z,1015.55
2019-05-16T00:20:08.959Z,1015.56
2019-05-16T00:21:08.547Z,1015.53
2019-05-16T00:22:08.547Z,1015.54
2019-05-16T00:23:07.898Z,1015.50
2019-05-16T00:24:08.248Z,1015.52
2019-05-16T00:25:08.483Z,1015.53
2019-05-16T00:26:07.892Z,1015.54
2019-05-16T00:27:08.322Z,1015.53
2019-05-16T00:28:06.229Z,1015.50
2019-05-16T00:29:08.011Z,1015.55
2019-05-16T00:30:08.611Z,1015.48
2019-05-16T00:31:08.428Z,1015.55
2019-05-16T00:32:08.424Z,1015.49
2019-05-16T00:33:08.341Z,1015.50
2019-05-16T00:34:06.164Z,1015.47
2019-05-16T00:35:06.125Z,1015.45
2019-05-16T00:36:08.939Z,1015.52
2019-05-16T00:37:06.095Z,1015.49
2019-05-16T00:38:08.676Z,1015.48
2019-05-16T00:39:08.218Z,1015.46
2019-05-16T00:40:08.066Z,1015.47
2019-05-16T00:41:08.338Z,1015.43
2019-05-16T00:42:06.041Z,1015.46
2019-05-16T00:43:08.028Z,1015.47
2019-05-16T00:44:08.237Z,1015.43
2019-05-16T00:45:06.034Z,1015.40
2019-05-16T00:46:08.072Z,1015.39
2019-05-16T00:47:08.485Z,1015.42
2019-05-16T00:48:05.969Z,1015.42
2019-05-16T00:49:08.127Z,1015.41
2019-05-16T00:50:05.958Z,1015.41
2019-05-16T00:51:07.811Z,1015.35
2019-05-16T00:52:07.781Z,1015.29
2019-05-16T00:53:05.913Z,1015.29
2019-05-16T00:54:08.077Z,1015.32
2019-05-16T00:55:05.889Z,1015.28
2019-05-16T00:56:07.881Z,1015.22
2019-05-16T00:57:08.336Z,1015.23
2019-05-16T00:58:05.856Z,1015.20
2019-05-16T00:59:07.791Z,1015.23
2019-05-16T01:00:08.124Z,1015.26
2019-05-16T01:01:08.329Z,1015.18
2019-05-16T01:02:05.816Z,1015.21
2019-05-16T01:03:08.004Z,1015.21
2019-05-16T01:04:07.890Z,1015.22
2019-05-16T01:05:08.279Z,1015.19
2019-05-16T01:06:18.421Z,1015.16
2019-05-16T01:07:08.213Z,1015.15
2019-05-16T01:08:07.747Z,1015.17
2019-05-16T01:09:05.764Z,1015.11
2019-05-16T01:10:05.725Z,1015.07
2019-05-16T01:11:07.772Z,1015.10
2019-05-16T01:12:05.711Z,1015.07
2019-05-16T01:13:07.854Z,1015.01
2019-05-16T01:14:05.709Z,1014.99
2019-05-16T01:15:07.664Z,1014.99
2019-05-16T01:16:05.658Z,1014.96
2019-05-16T01:17:05.646Z,1015.02
2019-05-16T01:18:07.849Z,1014.99
2019-05-16T01:19:05.661Z,1014.93
2019-05-16T01:20:05.649Z,1014.97
2019-05-16T01:21:07.698Z,1014.93
2019-05-16T01:22:08.152Z,1014.93
2019-05-16T01:23:05.582Z,1014.89
2019-05-16T01:24:07.942Z,1014.89
2019-05-16T01:25:05.916Z,1014.88
2019-05-16T01:26:07.817Z,1014.84
2019-05-16T01:27:05.542Z,1014.84
2019-05-16T01:28:05.528Z,1014.85
2019-05-16T01:29:05.520Z,1014.84
2019-05-16T01:30:05.550Z,1014.86
2019-05-16T01:31:05.497Z,1014.85
2019-05-16T01:32:05.483Z,1014.83
2019-05-16T01:33:05.471Z,1014.85
2019-05-16T01:34:07.666Z,1014.85
2019-05-16T01:35:05.489Z,1014.90
2019-05-16T01:36:05.440Z,1014.86
2019-05-16T01:37:05.425Z,1014.84
2019-05-16T01:38:05.415Z,1014.84
2019-05-16T01:39:07.801Z,1014.82
2019-05-16T01:40:05.431Z,1014.82
2019-05-16T01:41:05.382Z,1014.82
2019-05-16T01:42:05.378Z,1014.81
2019-05-16T01:43:05.367Z,1014.82
2019-05-16T01:44:07.700Z,1014.82
2019-05-16T01:45:05.364Z,1014.86
2019-05-16T01:46:05.325Z,1014.80
2019-05-16T01:48:08.256Z,1014.79
2019-05-16T01:49:05.296Z,1014.78
2019-05-16T01:50:05.313Z,1014.79
2019-05-16T01:51:07.616Z,1014.78
2019-05-16T01:52:05.267Z,1014.75
2019-05-16T01:53:05.248Z,1014.74
2019-05-16T01:54:05.240Z,1014.78
2019-05-16T01:55:05.248Z,1014.73
2019-05-16T01:56:05.224Z,1014.72
2019-05-16T01:57:05.201Z,1014.71
2019-05-16T01:58:05.193Z,1014.75
2019-05-16T01:59:05.181Z,1014.73
2019-05-16T02:00:05.212Z,1014.71
2019-05-16T02:01:12.214Z,1014.72
2019-05-16T02:02:08.195Z,1014.72
2019-05-16T02:03:05.151Z,1014.69
2019-05-16T02:04:05.136Z,1014.68
2019-05-16T02:05:05.146Z,1014.71
2019-05-16T02:06:05.108Z,1014.68
2019-05-16T02:07:05.096Z,1014.63
2019-05-16T02:08:05.087Z,1014.63
2019-05-16T02:09:05.071Z,1014.63
2019-05-16T02:10:05.088Z,1014.61
2019-05-16T02:11:05.052Z,1014.59
2019-05-16T02:12:05.039Z,1014.57
2019-05-16T02:13:05.023Z,1014.54
2019-05-16T02:14:05.015Z,1014.53
2019-05-16T02:15:05.039Z,1014.56
2019-05-16T02:16:05.018Z,1014.52
2019-05-16T02:17:04.982Z,1014.49
2019-05-16T02:18:04.973Z,1014.49
2019-05-16T02:19:04.961Z,1014.51
2019-05-16T02:20:04.969Z,1014.51
2019-05-16T02:21:04.973Z,1014.51
2019-05-16T02:22:04.939Z,1014.50
2019-05-16T02:23:04.913Z,1014.45
2019-05-16T02:24:04.900Z,1014.42
2019-05-16T02:25:04.897Z,1014.43
2019-05-16T02:26:04.904Z,1014.42
2019-05-16T02:27:04.868Z,1014.44
2019-05-16T02:28:04.864Z,1014.43
2019-05-16T02:29:04.847Z,1014.43
2019-05-16T02:30:04.838Z,1014.42
2019-05-16T02:31:04.852Z,1014.40
2019-05-16T02:32:04.831Z,1014.40
2019-05-16T02:33:04.805Z,1014.41
2019-05-16T02:34:05.177Z,1014.37
2019-05-16T02:35:04.790Z,1014.38
2019-05-16T02:36:04.820Z,1014.42
2019-05-16T02:37:24.222Z,1014.38
2019-05-16T02:38:05.753Z,1014.42
2019-05-16T02:39:04.742Z,1014.45
2019-05-16T02:40:04.755Z,1014.45
2019-05-16T02:41:04.740Z,1014.41
2019-05-16T02:42:04.720Z,1014.42
2019-05-16T02:43:04.701Z,1014.44
2019-05-16T02:44:04.767Z,1014.41
2019-05-16T02:45:04.673Z,1014.41
2019-05-16T02:46:04.792Z,1014.43
2019-05-16T02:47:04.681Z,1014.44
2019-05-16T02:48:04.636Z,1014.39
2019-05-16T02:49:04.631Z,1014.38
2019-05-16T02:50:04.614Z,1014.38
2019-05-16T02:51:04.608Z,1014.36
2019-05-16T02:52:04.620Z,1014.37
2019-05-16T02:53:04.586Z,1014.38
2019-05-16T02:54:04.569Z,1014.41
2019-05-16T02:55:04.559Z,1014.37
2019-05-16T02:56:04.550Z,1014.39
2019-05-16T02:57:04.578Z,1014.35
2019-05-16T02:58:04.525Z,1014.36
2019-05-16T02:59:04.525Z,1014.38
2019-05-16T03:00:04.504Z,1014.34
2019-05-16T03:01:04.493Z,1014.34
2019-05-16T03:02:04.514Z,1014.32
2019-05-16T03:03:04.474Z,1014.25
2019-05-16T03:04:04.464Z,1014.33
2019-05-16T03:05:04.455Z,1014.30
2019-05-16T03:06:04.445Z,1014.32
2019-05-16T03:07:04.452Z,1014.29
2019-05-16T03:08:04.424Z,1014.30
2019-05-16T03:09:05.375Z,1014.24
2019-05-16T03:10:04.408Z,1014.23
2019-05-16T03:11:04.389Z,1014.21
2019-05-16T03:12:04.429Z,1014.22
2019-05-16T03:13:04.359Z,1014.19
2019-05-16T03:14:04.351Z,1014.18
2019-05-16T03:15:04.348Z,1014.14
2019-05-16T03:16:04.353Z,1014.13
2019-05-16T03:17:04.348Z,1014.12
2019-05-16T03:18:04.770Z,1014.09
2019-05-16T03:19:04.292Z,1014.10
2019-05-16T03:20:04.280Z,1014.11
2019-05-16T03:21:04.280Z,1014.10
2019-05-16T03:22:04.306Z,1014.06
2019-05-16T03:23:04.268Z,1014.05
2019-05-16T03:24:04.239Z,1014.05
2019-05-16T03:25:04.232Z,1014.12
2019-05-16T03:26:04.220Z,1014.10
2019-05-16T03:27:04.245Z,1014.13
2019-05-16T03:28:04.229Z,1014.10
2019-05-16T03:29:04.192Z,1014.10
2019-05-16T03:30:04.177Z,1014.07
2019-05-16T03:31:05.766Z,1014.06
2019-05-16T03:32:04.186Z,1014.04
2019-05-16T03:33:05.612Z,1014.07
2019-05-16T03:34:07.331Z,1014.07
2019-05-16T03:35:05.701Z,1014.06
2019-05-16T03:36:05.113Z,1014.08
2019-05-16T03:37:05.069Z,1014.08
2019-05-16T03:38:05.645Z,1014.04
2019-05-16T03:39:04.067Z,1014.06
2019-05-16T03:40:04.057Z,1014.01
2019-05-16T03:41:04.053Z,1013.98
2019-05-16T03:42:04.038Z,1014.02
2019-05-16T03:43:04.175Z,1013.99
2019-05-16T03:44:04.011Z,1014.06
2019-05-16T03:45:04.002Z,1014.02
2019-05-16T03:46:03.990Z,1014.02
2019-05-16T03:47:03.982Z,1014.06
2019-05-16T03:48:03.997Z,1014.06
2019-05-16T03:49:03.960Z,1014.07
2019-05-16T03:50:03.956Z,1014.07
2019-05-16T03:51:03.932Z,1014.07
2019-05-16T03:52:03.927Z,1014.01
2019-05-16T03:53:03.990Z,1014.04
2019-05-16T03:54:03.899Z,1014.03
2019-05-16T03:55:03.902Z,1014.04
2019-05-16T03:56:03.922Z,1014.09
2019-05-16T03:57:03.876Z,1014.08
2019-05-16T03:58:03.892Z,1014.09
2019-05-16T03:59:03.844Z,1014.09
2019-05-16T04:00:03.843Z,1014.08
2019-05-16T04:01:03.840Z,1014.14
2019-05-16T04:02:03.825Z,1014.09
2019-05-16T04:03:03.842Z,1014.04
2019-05-16T04:04:03.787Z,1014.04
2019-05-16T04:05:03.778Z,1014.03
2019-05-16T04:06:03.771Z,1013.97
2019-05-16T04:07:03.757Z,1013.98
2019-05-16T04:08:14.859Z,1013.93
2019-05-16T04:09:04.760Z,1013.95
2019-05-16T04:10:03.723Z,1013.91
2019-05-16T04:11:03.712Z,1013.90
2019-05-16T04:12:03.710Z,1013.96
2019-05-16T04:13:03.689Z,1014.00
2019-05-16T04:14:03.728Z,1014.02
2019-05-16T04:15:03.666Z,1013.98
2019-05-16T04:16:03.661Z,1013.97
2019-05-16T04:17:03.657Z,1013.96
2019-05-16T04:18:03.665Z,1013.99
2019-05-16T04:19:03.644Z,1013.93
2019-05-16T04:20:03.610Z,1013.98
2019-05-16T04:21:03.601Z,1013.95
2019-05-16T04:22:03.611Z,1013.98
2019-05-16T04:23:03.579Z,1014.02
2019-05-16T04:24:03.603Z,1014.01
2019-05-16T04:25:03.553Z,1013.99
2019-05-16T04:26:03.550Z,1014.02
2019-05-16T04:27:03.539Z,1014.02
2019-05-16T04:28:03.524Z,1014.01
2019-05-16T04:29:03.547Z,1014.05
2019-05-16T04:30:03.546Z,1014.04
2019-05-16T04:31:03.491Z,1014.03
2019-05-16T04:32:03.474Z,1014.03
2019-05-16T04:33:03.476Z,1014.04
2019-05-16T04:34:03.492Z,1014.03
2019-05-16T04:35:03.447Z,1014.02
2019-05-16T04:36:03.431Z,1014.00
2019-05-16T04:37:03.431Z,1014.06
2019-05-16T04:38:03.411Z,1014.05
2019-05-16T04:39:03.413Z,1014.03
2019-05-16T04:40:03.419Z,1014.09
2019-05-16T04:41:03.376Z,1014.00
2019-05-16T04:42:03.374Z,1014.04
2019-05-16T04:43:03.354Z,1014.03
2019-05-16T04:44:04.872Z,1013.96
2019-05-16T04:45:03.351Z,1013.98
2019-05-16T04:46:03.326Z,1013.93
2019-05-16T04:47:03.313Z,1013.97
2019-05-16T04:48:03.318Z,1013.98
2019-05-16T04:49:03.287Z,1013.94
2019-05-16T04:50:03.314Z,1013.99
2019-05-16T04:51:03.275Z,1014.00
2019-05-16T04:52:03.260Z,1014.01
2019-05-16T04:53:03.246Z,1014.02
2019-05-16T04:54:06.800Z,1014.02
2019-05-16T04:55:03.250Z,1013.99
2019-05-16T04:56:03.213Z,1014.02
2019-05-16T04:57:03.205Z,1013.99
2019-05-16T04:58:03.189Z,1014.00
2019-05-16T04:59:03.177Z,1014.01
2019-05-16T05:00:03.203Z,1014.01
2019-05-16T05:01:03.154Z,1013.98
2019-05-16T05:02:03.144Z,1014.02
2019-05-16T05:03:03.141Z,1013.98
2019-05-16T05:04:10.851Z,1014.00
2019-05-16T05:05:04.141Z,1013.98
2019-05-16T05:06:03.113Z,1013.99
2019-05-16T05:07:03.092Z,1013.98
2019-05-16T05:08:03.086Z,1014.00
2019-05-16T05:09:03.692Z,1014.00
2019-05-16T05:10:03.099Z,1014.01
2019-05-16T05:11:03.070Z,1013.96
2019-05-16T05:12:04.524Z,1013.98
2019-05-16T05:13:03.031Z,1014.01
2019-05-16T05:14:03.017Z,1013.96
2019-05-16T05:15:03.026Z,1013.90
2019-05-16T05:16:03.016Z,1013.93
2019-05-16T05:17:05.367Z,1013.99
2019-05-16T05:18:02.963Z,1013.92
2019-05-16T05:19:02.949Z,1013.93
2019-05-16T05:20:02.959Z,1013.91
2019-05-16T05:21:03.047Z,1013.94
2019-05-16T05:22:02.927Z,1013.94
2019-05-16T05:23:02.910Z,1013.96
2019-05-16T05:24:02.889Z,1013.95
2019-05-16T05:25:02.878Z,1013.97
2019-05-16T05:26:02.892Z,1013.96
2019-05-16T05:27:02.862Z,1013.95
2019-05-16T05:28:02.859Z,1013.96
2019-05-16T05:29:02.837Z,1013.93
2019-05-16T05:30:02.826Z,1013.94
2019-05-16T05:31:02.852Z,1013.93
2019-05-16T05:32:04.925Z,1013.86
2019-05-16T05:33:02.794Z,1013.84
2019-05-16T05:34:02.780Z,1013.87
2019-05-16T05:35:02.773Z,1013.89
2019-05-16T05:36:02.781Z,1013.90
2019-05-16T05:37:02.777Z,1013.95
2019-05-16T05:38:02.740Z,1013.89
2019-05-16T05:39:11.564Z,1013.91
2019-05-16T05:40:03.708Z,1013.86
2019-05-16T05:41:02.730Z,1013.84
2019-05-16T05:42:02.687Z,1013.83
2019-05-16T05:43:02.724Z,1013.85
2019-05-16T05:44:02.670Z,1013.86
2019-05-16T05:45:02.657Z,1013.89
2019-05-16T05:46:02.671Z,1013.87
2019-05-16T05:47:02.638Z,1013.84
2019-05-16T05:48:02.634Z,1013.88
2019-05-16T05:49:02.612Z,1013.88
2019-05-16T05:50:02.601Z,1013.84
2019-05-16T05:51:02.622Z,1013.85
2019-05-16T05:52:02.578Z,1013.90
2019-05-16T05:53:02.568Z,1013.90
2019-05-16T05:54:02.560Z,1013.88
2019-05-16T05:55:02.546Z,1013.89
2019-05-16T05:56:02.560Z,1013.89
2019-05-16T05:57:02.520Z,1013.87
2019-05-16T05:58:02.519Z,1013.90
2019-05-16T05:59:02.500Z,1013.90
2019-05-16T06:00:02.494Z,1013.83
2019-05-16T06:01:02.499Z,1013.77
2019-05-16T06:02:02.480Z,1013.81
2019-05-16T06:03:02.455Z,1013.77
2019-05-16T06:04:02.437Z,1013.78
2019-05-16T06:05:02.433Z,1013.84
2019-05-16T06:06:02.453Z,1013.83
2019-05-16T06:07:02.405Z,1013.85
2019-05-16T06:08:02.405Z,1013.85
2019-05-16T06:09:02.388Z,1013.83
2019-05-16T06:10:02.374Z,1013.87
2019-05-16T06:11:02.366Z,1013.86
2019-05-16T06:12:02.376Z,1013.86
2019-05-16T06:13:02.343Z,1013.87
2019-05-16T06:14:02.329Z,1013.85
2019-05-16T06:15:08.286Z,1013.85
2019-05-16T06:16:03.332Z,1013.81
2019-05-16T06:17:02.313Z,1013.84
2019-05-16T06:18:02.293Z,1013.81
2019-05-16T06:19:02.272Z,1013.78
2019-05-16T06:20:02.262Z,1013.80
2019-05-16T06:21:02.246Z,1013.79
2019-05-16T06:22:02.313Z,1013.76
2019-05-16T06:23:02.224Z,1013.77
2019-05-16T06:24:02.211Z,1013.74
2019-05-16T06:25:02.243Z,1013.75
2019-05-16T06:26:02.194Z,1013.78
2019-05-16T06:27:02.208Z,1013.76
2019-05-16T06:28:02.189Z,1013.76
2019-05-16T06:29:02.164Z,1013.73
2019-05-16T06:30:02.147Z,1013.75
2019-05-16T06:31:02.621Z,1013.75
2019-05-16T06:32:02.156Z,1013.67
2019-05-16T06:33:02.112Z,1013.71
2019-05-16T06:34:07.762Z,1013.69
2019-05-16T06:35:03.097Z,1013.73
2019-05-16T06:36:02.077Z,1013.69
2019-05-16T06:37:02.107Z,1013.71
2019-05-16T06:38:02.058Z,1013.70
2019-05-16T06:39:02.046Z,1013.71
2019-05-16T06:40:02.039Z,1013.68
2019-05-16T06:41:02.023Z,1013.76
2019-05-16T06:42:02.053Z,1013.74
2019-05-16T06:43:02.005Z,1013.69
2019-05-16T06:44:01.992Z,1013.69
2019-05-16T06:45:01.973Z,1013.68
2019-05-16T06:46:01.971Z,1013.70
2019-05-16T06:47:16.043Z,1013.69
2019-05-16T06:48:02.946Z,1013.65
2019-05-16T06:49:01.931Z,1013.65
2019-05-16T06:50:01.955Z,1013.65
2019-05-16T06:51:03.133Z,1013.63
2019-05-16T06:52:01.936Z,1013.62
2019-05-16T06:53:01.919Z,1013.63
2019-05-16T06:54:02.022Z,1013.67
2019-05-16T06:55:01.867Z,1013.64
2019-05-16T06:56:01.888Z,1013.62
2019-05-16T06:57:01.838Z,1013.64
2019-05-16T06:58:01.874Z,1013.63
2019-05-16T06:59:01.911Z,1013.64
2019-05-16T07:00:01.809Z,1013.62
2019-05-16T07:01:03.633Z,1013.60
2019-05-16T07:02:01.861Z,1013.66
2019-05-16T07:03:01.797Z,1013.62
2019-05-16T07:04:01.762Z,1013.63
2019-05-16T07:05:01.774Z,1013.58
2019-05-16T07:06:01.750Z,1013.54
2019-05-16T07:07:02.969Z,1013.52
2019-05-16T07:08:01.738Z,1013.54
2019-05-16T07:09:01.702Z,1013.53
2019-05-16T07:10:04.627Z,1013.53
2019-05-16T07:11:01.680Z,1013.50
2019-05-16T07:12:01.677Z,1013.47
2019-05-16T07:13:01.687Z,1013.50
2019-05-16T07:14:01.661Z,1013.49
2019-05-16T07:15:02.320Z,1013.51
2019-05-16T07:16:01.625Z,1013.52
2019-05-16T07:17:01.615Z,1013.51
2019-05-16T07:18:01.605Z,1013.51
2019-05-16T07:19:01.616Z,1013.44
2019-05-16T07:20:01.588Z,1013.47
2019-05-16T07:21:01.582Z,1013.43
2019-05-16T07:22:01.556Z,1013.42
2019-05-16T07:23:01.547Z,1013.41
2019-05-16T07:24:01.557Z,1013.39
2019-05-16T07:25:01.533Z,1013.38
2019-05-16T07:26:01.522Z,1013.37
2019-05-16T07:27:01.549Z,1013.35
2019-05-16T07:28:01.492Z,1013.34
2019-05-16T07:29:01.510Z,1013.36
2019-05-16T07:30:01.583Z,1013.36
2019-05-16T07:31:14.476Z,1013.31
2019-05-16T07:32:02.446Z,1013.32
2019-05-16T07:33:01.447Z,1013.37
2019-05-16T07:34:01.449Z,1013.29
2019-05-16T07:35:01.414Z,1013.30
2019-05-16T07:36:01.434Z,1013.26
2019-05-16T07:37:01.392Z,1013.37
2019-05-16T07:38:01.396Z,1013.34
2019-05-16T07:39:01.392Z,1013.31
2019-05-16T07:40:16.316Z,1013.30
2019-05-16T07:41:02.345Z,1013.30
2019-05-16T07:42:01.343Z,1013.31
2019-05-16T07:43:01.319Z,1013.34
2019-05-16T07:44:01.342Z,1013.30
2019-05-16T07:45:01.311Z,1013.30
2019-05-16T07:46:01.293Z,1013.32
2019-05-16T07:47:01.335Z,1013.24
2019-05-16T07:48:01.262Z,1013.24
2019-05-16T07:49:01.463Z,1013.26
2019-05-16T07:50:01.249Z,1013.24
2019-05-16T07:51:01.244Z,1013.22
2019-05-16T07:52:01.223Z,1013.20
2019-05-16T07:53:01.213Z,1013.18
2019-05-16T07:54:01.239Z,1013.19
2019-05-16T07:55:03.908Z,1013.19
2019-05-16T07:56:01.182Z,1013.19
2019-05-16T07:57:12.179Z,1013.12
2019-05-16T07:58:02.152Z,1013.19
2019-05-16T07:59:01.155Z,1013.16
2019-05-16T08:00:01.173Z,1013.12
2019-05-16T08:01:04.470Z,1013.10
2019-05-16T08:02:02.116Z,1013.10
2019-05-16T08:03:01.102Z,1013.08
2019-05-16T08:04:01.133Z,1012.99
2019-05-16T08:05:01.125Z,1013.01
2019-05-16T08:06:01.712Z,1013.03
2019-05-16T08:07:01.135Z,1013.01
2019-05-16T08:08:01.044Z,1012.99
2019-05-16T08:09:01.167Z,1013.02
2019-05-16T08:10:01.064Z,1012.99
2019-05-16T08:11:01.688Z,1013.05
2019-05-16T08:12:01.844Z,1013.00
2019-05-16T08:13:03.329Z,1012.99
2019-05-16T08:14:01.140Z,1012.96
2019-05-16T08:15:01.038Z,1013.02
2019-05-16T08:16:01.455Z,1013.01
2019-05-16T08:17:01.265Z,1012.98
2019-05-16T08:18:03.140Z,1012.93
2019-05-16T08:19:01.201Z,1012.89
2019-05-16T08:20:00.930Z,1012.91
2019-05-16T08:21:01.562Z,1012.87
2019-05-16T08:22:01.448Z,1012.86
2019-05-16T08:23:00.983Z,1012.84
2019-05-16T08:24:07.104Z,1012.85
2019-05-16T08:25:01.894Z,1012.88
2019-05-16T08:26:01.407Z,1012.85
2019-05-16T08:27:01.837Z,1012.87
2019-05-16T08:28:01.327Z,1012.81
2019-05-16T08:29:02.013Z,1012.85
2019-05-16T08:31:01.817Z,1012.87
2019-05-16T08:32:02.103Z,1012.84
2019-05-16T08:34:01.753Z,1012.83
2019-05-16T08:35:01.346Z,1012.84
2019-05-16T08:36:07.158Z,1012.80
2019-05-16T08:37:01.726Z,1012.83
2019-05-16T08:38:01.240Z,1012.82
2019-05-16T08:39:01.225Z,1012.78
2019-05-16T08:40:00.688Z,1012.75
2019-05-16T08:41:11.633Z,1012.75
2019-05-16T08:42:08.048Z,1012.78
2019-05-16T08:43:01.653Z,1012.72
2019-05-16T08:44:01.317Z,1012.72
2019-05-16T08:45:01.952Z,1012.70
2019-05-16T08:46:01.170Z,1012.66
2019-05-16T08:47:06.294Z,1012.69
2019-05-16T08:48:01.601Z,1012.71
2019-05-16T08:49:01.094Z,1012.69
2019-05-16T08:50:00.862Z,1012.68
2019-05-16T08:51:02.828Z,1012.65
2019-05-16T08:52:01.532Z,1012.71
2019-05-16T08:53:02.878Z,1012.66
2019-05-16T08:54:01.534Z,1012.66
2019-05-16T08:55:03.556Z,1012.59
2019-05-16T08:56:02.622Z,1012.57
2019-05-16T08:58:02.821Z,1012.55
2019-05-16T08:59:02.677Z,1012.53
2019-05-16T09:00:01.484Z,1012.51
2019-05-16T09:01:02.317Z,1012.53
2019-05-16T09:03:01.847Z,1012.59
2019-05-16T09:04:01.510Z,1012.59
2019-05-16T09:07:02.142Z,1012.55
2019-05-16T09:08:01.032Z,1012.56
2019-05-16T09:09:14.441Z,1012.47
2019-05-16T09:10:01.370Z,1012.54
2019-05-16T09:10:30.767Z,1012.55
2019-05-16T09:10:30.921Z,1012.56
2019-05-16T09:10:30.922Z,1012.55
2019-05-16T09:10:34.455Z,1012.52
2019-05-16T09:10:35.110Z,1012.82
2019-05-16T09:10:41.850Z,1012.86
2019-05-16T09:11:04.830Z,1012.47
2019-05-16T09:12:01.368Z,1012.53
2019-05-16T09:13:00.317Z,1012.52
2019-05-16T09:14:00.301Z,1012.48
2019-05-16T09:15:00.296Z,1012.46
2019-05-16T09:16:00.303Z,1012.46
2019-05-16T09:17:00.295Z,1012.41
2019-05-16T09:18:00.264Z,1012.42
2019-05-16T09:19:00.301Z,1012.37
2019-05-16T09:20:00.241Z,1012.37
2019-05-16T09:21:00.231Z,1012.38
2019-05-16T09:22:00.249Z,1012.41
2019-05-16T09:23:00.212Z,1012.39
2019-05-16T09:24:00.197Z,1012.34
2019-05-16T09:25:00.188Z,1012.37
2019-05-16T09:26:00.173Z,1012.37
2019-05-16T09:27:00.187Z,1012.35
2019-05-16T09:28:00.150Z,1012.36
2019-05-16T09:29:00.141Z,1012.28
2019-05-16T09:30:00.147Z,1012.26
2019-05-16T09:31:00.119Z,1012.31
2019-05-16T09:32:08.905Z,1012.34
2019-05-16T09:33:01.097Z,1012.26
2019-05-16T09:34:00.086Z,1012.25
2019-05-16T09:35:00.078Z,1012.22
2019-05-16T09:36:00.064Z,1012.23
2019-05-16T09:37:01.427Z,1012.21
2019-05-16T09:38:00.036Z,1012.18
2019-05-16T09:39:00.025Z,1012.20
2019-05-16T09:40:00.012Z,1012.14
2019-05-16T09:41:00.004Z,1012.16
2019-05-16T09:42:00.017Z,1012.20
2019-05-16T09:42:59.977Z,1012.19
2019-05-16T09:43:59.963Z,1012.16
2019-05-16T09:44:59.956Z,1012.16
2019-05-16T09:46:07.627Z,1012.13
2019-05-16T09:47:00.965Z,1012.14
2019-05-16T09:47:59.926Z,1012.17
2019-05-16T09:49:19.293Z,1012.18
2019-05-16T09:50:00.913Z,1012.12
2019-05-16T09:50:59.925Z,1012.13
2019-05-16T09:51:59.903Z,1012.18
2019-05-16T09:52:59.886Z,1012.14
2019-05-16T09:53:59.863Z,1012.15
2019-05-16T09:54:59.836Z,1012.12
2019-05-16T09:55:59.833Z,1012.10
2019-05-16T09:56:59.818Z,1012.13
2019-05-16T09:57:59.834Z,1012.13
2019-05-16T09:58:59.790Z,1012.16
2019-05-16T09:59:59.843Z,1012.15
2019-05-16T10:00:59.780Z,1012.06
2019-05-16T10:01:59.756Z,1012.08
2019-05-16T10:02:59.774Z,1012.09
2019-05-16T10:03:59.738Z,1012.08
2019-05-16T10:04:59.725Z,1012.12
2019-05-16T10:05:59.715Z,1012.06
2019-05-16T10:06:59.699Z,1012.09
2019-05-16T10:07:59.727Z,1012.02
2019-05-16T10:08:59.687Z,1012.06
2019-05-16T10:09:59.674Z,1012.02
2019-05-16T10:10:59.655Z,1012.01
2019-05-16T10:12:11.929Z,1012.05
2019-05-16T10:13:00.807Z,1012.03
2019-05-16T10:13:59.628Z,1012.05
2019-05-16T10:14:59.917Z,1012.03
2019-05-16T10:15:59.603Z,1012.08
2019-05-16T10:16:59.586Z,1012.01
2019-05-16T10:17:59.614Z,1012.04
2019-05-16T10:18:59.571Z,1011.99
2019-05-16T10:20:00.087Z,1011.95
2019-05-16T10:20:59.550Z,1011.93
2019-05-16T10:22:00.334Z,1011.96
2019-05-16T10:22:59.581Z,1011.90
2019-05-16T10:23:59.541Z,1011.96
2019-05-16T10:24:59.522Z,1011.93
2019-05-16T10:25:59.485Z,1011.90
2019-05-16T10:26:59.475Z,1011.89
2019-05-16T10:27:59.473Z,1011.92
2019-05-16T10:28:59.485Z,1011.93
2019-05-16T10:30:01.068Z,1011.84
2019-05-16T10:30:59.426Z,1011.92
2019-05-16T10:31:59.422Z,1011.88
2019-05-16T10:33:01.007Z,1011.91
2019-05-16T10:33:59.425Z,1011.89
2019-05-16T10:34:59.393Z,1011.86
2019-05-16T10:35:59.409Z,1011.85
2019-05-16T10:36:59.355Z,1011.84
2019-05-16T10:37:59.345Z,1011.76
2019-05-16T10:38:59.387Z,1011.78
2019-05-16T10:39:59.998Z,1011.81
2019-05-16T10:40:59.310Z,1011.82
2019-05-16T10:41:59.299Z,1011.78
2019-05-16T10:42:59.290Z,1011.77
2019-05-16T10:43:59.299Z,1011.75
2019-05-16T10:44:59.266Z,1011.74
2019-05-16T10:45:59.251Z,1011.73
2019-05-16T10:46:59.251Z,1011.78
2019-05-16T10:47:59.244Z,1011.76
2019-05-16T10:48:59.250Z,1011.77
2019-05-16T10:49:59.227Z,1011.79
2019-05-16T10:50:59.199Z,1011.74
2019-05-16T10:51:59.190Z,1011.79
2019-05-16T10:53:22.630Z,1011.77
2019-05-16T10:54:08.898Z,1011.77
2019-05-16T10:55:02.447Z,1011.71
2019-05-16T10:55:59.160Z,1011.71
2019-05-16T10:56:59.225Z,1011.74
2019-05-16T10:57:59.121Z,1011.75
2019-05-16T10:59:37.766Z,1011.73
2019-05-16T11:00:09.116Z,1011.75
2019-05-16T11:01:26.587Z,1011.73
2019-05-16T11:02:00.074Z,1011.70
2019-05-16T11:02:59.096Z,1011.70
2019-05-16T11:03:59.078Z,1011.68
2019-05-16T11:05:14.229Z,1011.69
2019-05-16T11:06:05.018Z,1011.75
2019-05-16T11:07:00.018Z,1011.76
2019-05-16T11:07:59.046Z,1011.71
2019-05-16T11:08:59.025Z,1011.73
2019-05-16T11:10:03.286Z,1011.65
2019-05-16T11:10:58.985Z,1011.69
2019-05-16T11:11:58.976Z,1011.61
2019-05-16T11:12:59.798Z,1011.59
2019-05-16T11:13:58.978Z,1011.61
2019-05-16T11:14:58.970Z,1011.56
2019-05-16T11:15:59.162Z,1011.55
2019-05-16T11:16:58.912Z,1011.53
2019-05-16T11:18:00.155Z,1011.52
2019-05-16T11:19:13.770Z,1011.53
2019-05-16T11:19:59.895Z,1011.53
2019-05-16T11:20:58.861Z,1011.49
2019-05-16T11:21:58.852Z,1011.56
2019-05-16T11:22:58.844Z,1011.52
2019-05-16T11:23:58.834Z,1011.47
2019-05-16T11:24:58.848Z,1011.55
2019-05-16T11:25:58.806Z,1011.51
2019-05-16T11:26:58.795Z,1011.50
2019-05-16T11:27:58.782Z,1011.51
2019-05-16T11:28:58.782Z,1011.54
2019-05-16T11:29:58.793Z,1011.51
2019-05-16T11:31:03.290Z,1011.46
2019-05-16T11:31:58.738Z,1011.47
2019-05-16T11:32:58.725Z,1011.46
2019-05-16T11:33:58.716Z,1011.44
2019-05-16T11:34:58.738Z,1011.40
2019-05-16T11:35:58.696Z,1011.38
2019-05-16T11:36:58.685Z,1011.37
2019-05-16T11:37:58.683Z,1011.31
2019-05-16T11:39:01.947Z,1011.30
2019-05-16T11:39:58.650Z,1011.27
2019-05-16T11:40:58.664Z,1011.23
2019-05-16T11:41:58.622Z,1011.20
2019-05-16T11:43:10.611Z,1011.17
2019-05-16T11:43:59.629Z,1011.11
2019-05-16T11:44:58.601Z,1011.08
2019-05-16T11:45:58.611Z,1011.07
2019-05-16T11:46:58.585Z,1011.01
2019-05-16T11:47:58.560Z,1010.96
2019-05-16T11:48:58.550Z,1010.96
2019-05-16T11:49:58.554Z,1010.93
2019-05-16T11:50:58.554Z,1010.88
2019-05-16T11:51:58.519Z,1010.92
2019-05-16T11:52:58.506Z,1010.94
2019-05-16T11:53:59.971Z,1010.96
2019-05-16T11:54:58.486Z,1010.93
2019-05-16T11:56:01.606Z,1010.93
2019-05-16T11:56:58.459Z,1010.97
2019-05-16T11:57:58.454Z,1011.00
2019-05-16T11:58:58.448Z,1010.95
2019-05-16T11:59:58.422Z,1011.00
2019-05-16T12:00:58.435Z,1010.93
2019-05-16T12:01:58.404Z,1010.97
2019-05-16T12:02:58.388Z,1010.96
2019-05-16T12:03:58.376Z,1010.96
2019-05-16T12:04:58.367Z,1010.95
2019-05-16T12:06:59.466Z,1010.97